Greenbrier Valley Airport Lewisburg US
ICAO: KLWB
IATA: LWB
Category: Medium
Scheduled Services: No

Elevation: 2302 ft
TransAlt. 18000 ft.

Airport Communications:
AWOS 3:121.4
CLNC DEL:120.85
WASHINGTON CNTR:134.4
CTAF:118.9
GND:121.9
LEWISBURG TWR:118.9
UNICOM:122.95

KLWB Zoom In..

Runways:

(A) RW 04 length 7003 ft width 150 ft
ILS 110.35 / hdg 43

(B) RW 22 length 7003 ft width 150 ft
---- / hdg 223

Location; KLWB
Day. 26 / Time. 11.15 Zulu
* Altimeter: 30.22
* Temperature: 17° c. 62.6°f.
* Wind from: 000° Speed 00 kn.
Dewpoint: 17° c.
Visibility: 10 Statute Miles.
Clouds: Overcast 2600 ft.

KLWB 261115Z AUTO 00000KT 10SM OVC026 17/17 A3022 RMK AO2 T01720165


Wind - Calm.

 
 
jpsmedia worldairports.se 2020   terms of use